createdAt,value
2023-06-17T00:02:16.648Z,53.26
2023-06-17T00:04:48.606Z,53.12
2023-06-17T00:07:20.371Z,53.38
2023-06-17T00:09:51.955Z,53.43
2023-06-17T00:12:25.516Z,53.16
2023-06-17T00:14:58.394Z,52.90
2023-06-17T00:17:33.564Z,51.83
2023-06-17T00:20:13.383Z,52.23
2023-06-17T00:22:45.845Z,52.17
2023-06-17T00:25:17.530Z,52.52
2023-06-17T00:27:49.129Z,52.60
2023-06-17T00:30:20.999Z,52.69
2023-06-17T00:32:52.973Z,52.95
2023-06-17T00:35:24.588Z,53.07
2023-06-17T00:37:56.198Z,53.58
2023-06-17T00:40:28.142Z,53.65
2023-06-17T00:43:00.175Z,54.41
2023-06-17T00:45:39.739Z,54.83
2023-06-17T00:48:12.363Z,54.81
2023-06-17T00:50:46.571Z,54.85
2023-06-17T00:53:18.556Z,54.84
2023-06-17T00:55:51.011Z,55.57
2023-06-17T00:58:23.650Z,54.86
2023-06-17T01:00:55.365Z,54.98
2023-06-17T01:03:27.088Z,55.89
2023-06-17T01:06:04.483Z,56.26
2023-06-17T01:08:45.725Z,57.34
2023-06-17T01:11:21.355Z,57.17
2023-06-17T01:13:57.326Z,57.29
2023-06-17T01:16:33.199Z,57.06
2023-06-17T01:19:07.049Z,57.36
2023-06-17T01:21:39.769Z,57.76
2023-06-17T01:24:14.136Z,58.14
2023-06-17T01:26:45.746Z,58.16
2023-06-17T01:29:17.487Z,58.78
2023-06-17T01:31:50.807Z,58.48
2023-06-17T01:34:45.470Z,59.03
2023-06-17T01:37:27.235Z,58.52
2023-06-17T01:40:01.890Z,58.05
2023-06-17T01:42:37.765Z,57.86
2023-06-17T01:45:10.566Z,58.03
2023-06-17T01:47:43.333Z,58.49
2023-06-17T01:50:20.281Z,58.41
2023-06-17T01:52:52.616Z,58.61
2023-06-17T01:55:24.300Z,58.68
2023-06-17T01:57:55.998Z,58.78
2023-06-17T02:00:27.793Z,57.53
2023-06-17T02:02:59.543Z,58.24
2023-06-17T02:05:31.187Z,58.70
2023-06-17T02:08:05.758Z,57.80
2023-06-17T02:10:37.362Z,58.13
2023-06-17T02:13:11.718Z,58.57
2023-06-17T02:15:44.102Z,57.85
2023-06-17T02:18:15.860Z,57.79
2023-06-17T02:20:47.817Z,57.91
2023-06-17T02:23:19.703Z,58.01
2023-06-17T02:25:52.076Z,57.96
2023-06-17T02:28:23.720Z,55.55
2023-06-17T02:30:55.915Z,52.31
2023-06-17T02:33:27.674Z,52.60
2023-06-17T02:35:59.263Z,57.55
2023-06-17T02:38:31.304Z,58.11
2023-06-17T02:41:02.875Z,56.87
2023-06-17T02:43:34.522Z,57.73
2023-06-17T02:46:06.372Z,58.04
2023-06-17T02:48:38.044Z,58.14
2023-06-17T02:51:10.568Z,58.20
2023-06-17T02:53:42.313Z,58.54
2023-06-17T02:56:13.943Z,58.02
2023-06-17T02:58:46.863Z,58.21
2023-06-17T03:01:19.354Z,58.11
2023-06-17T03:03:56.123Z,58.30
2023-06-17T03:06:27.895Z,58.40
2023-06-17T03:08:59.509Z,58.66
2023-06-17T03:11:31.299Z,58.92
2023-06-17T03:14:03.960Z,59.25
2023-06-17T03:16:35.952Z,59.05
2023-06-17T03:19:08.034Z,59.13
2023-06-17T03:21:42.185Z,59.35
2023-06-17T03:24:13.860Z,59.17
2023-06-17T03:26:46.364Z,59.29
2023-06-17T03:29:18.043Z,59.00
2023-06-17T03:31:49.728Z,58.52
2023-06-17T03:34:21.707Z,58.48
2023-06-17T03:36:53.799Z,58.73
2023-06-17T03:39:25.464Z,58.73
2023-06-17T03:41:57.103Z,59.15
2023-06-17T03:44:28.745Z,59.95
2023-06-17T03:47:00.971Z,59.85
2023-06-17T03:49:32.712Z,59.52
2023-06-17T03:52:04.793Z,59.39
2023-06-17T03:54:36.475Z,59.20
2023-06-17T03:57:08.154Z,59.66
2023-06-17T03:59:39.815Z,59.23
2023-06-17T04:02:12.593Z,58.72
2023-06-17T04:04:44.504Z,58.20
2023-06-17T04:07:16.252Z,58.89
2023-06-17T04:09:57.993Z,58.53
2023-06-17T04:12:38.942Z,58.38
2023-06-17T04:15:10.719Z,58.55
2023-06-17T04:17:42.403Z,58.59
2023-06-17T04:20:14.153Z,58.54
2023-06-17T04:22:46.025Z,57.93
2023-06-17T04:25:21.854Z,57.56
2023-06-17T04:27:54.854Z,57.32
2023-06-17T04:30:26.650Z,57.48
2023-06-17T04:33:01.344Z,57.68
2023-06-17T04:35:33.169Z,56.82
2023-06-17T04:38:05.492Z,56.80
2023-06-17T04:40:37.952Z,56.83
2023-06-17T04:43:11.008Z,55.84
2023-06-17T04:45:43.032Z,56.30
2023-06-17T04:48:15.697Z,56.27
2023-06-17T04:50:48.982Z,55.23
2023-06-17T04:53:20.567Z,54.43
2023-06-17T04:55:52.588Z,55.54
2023-06-17T04:58:24.231Z,54.70
2023-06-17T05:00:55.831Z,53.60
2023-06-17T05:03:27.472Z,52.97
2023-06-17T05:05:59.061Z,53.62
2023-06-17T05:08:30.683Z,52.35
2023-06-17T05:11:02.234Z,51.93
2023-06-17T05:13:33.839Z,51.88
2023-06-17T05:16:05.871Z,51.52
2023-06-17T05:18:37.452Z,52.60
2023-06-17T05:21:09.230Z,53.08
2023-06-17T05:23:40.846Z,53.06
2023-06-17T05:26:12.508Z,52.72
2023-06-17T05:28:44.640Z,51.01
2023-06-17T05:31:16.464Z,50.30
2023-06-17T05:33:48.158Z,50.75
2023-06-17T05:36:19.816Z,50.48
2023-06-17T05:38:51.964Z,50.77
2023-06-17T05:41:23.578Z,50.10
2023-06-17T05:43:55.202Z,50.21
2023-06-17T05:46:26.830Z,49.74
2023-06-17T05:48:58.575Z,49.62
2023-06-17T05:51:30.216Z,49.37
2023-06-17T05:54:01.891Z,48.94
2023-06-17T05:56:33.653Z,49.25
2023-06-17T05:59:05.236Z,49.24
2023-06-17T06:01:36.875Z,48.70
2023-06-17T06:04:08.612Z,48.59
2023-06-17T06:06:40.293Z,48.10
2023-06-17T06:09:12.188Z,50.21
2023-06-17T06:11:43.835Z,48.67
2023-06-17T06:14:18.806Z,47.85
2023-06-17T06:16:51.184Z,47.80
2023-06-17T06:19:22.871Z,47.21
2023-06-17T06:21:54.509Z,47.21
2023-06-17T06:24:26.117Z,47.03
2023-06-17T06:26:57.926Z,46.67
2023-06-17T06:29:29.481Z,46.25
2023-06-17T06:32:01.892Z,45.71
2023-06-17T06:34:34.081Z,45.67
2023-06-17T06:37:06.157Z,45.72
2023-06-17T06:39:37.729Z,45.12
2023-06-17T06:42:09.757Z,45.11
2023-06-17T06:44:41.362Z,44.51
2023-06-17T06:47:12.971Z,42.55
2023-06-17T06:49:44.724Z,45.03
2023-06-17T06:52:16.495Z,43.41
2023-06-17T06:54:48.226Z,45.10
2023-06-17T06:57:19.939Z,43.96
2023-06-17T06:59:52.740Z,44.02
2023-06-17T07:02:24.469Z,43.42
2023-06-17T07:04:56.200Z,43.12
2023-06-17T07:07:27.940Z,42.01
2023-06-17T07:09:59.890Z,41.40
2023-06-17T07:12:31.688Z,41.37
2023-06-17T07:15:03.699Z,40.06
2023-06-17T07:17:35.309Z,39.61
2023-06-17T07:20:07.731Z,36.96
2023-06-17T07:22:39.366Z,32.50
2023-06-17T07:25:11.085Z,30.26
2023-06-17T07:27:42.790Z,28.59
2023-06-17T07:30:14.623Z,26.17
2023-06-17T07:32:46.372Z,25.19
2023-06-17T07:35:18.572Z,23.09
2023-06-17T07:37:53.118Z,23.61
2023-06-17T07:40:24.728Z,26.12
2023-06-17T07:42:56.505Z,25.56
2023-06-17T07:45:28.310Z,26.08
2023-06-17T07:48:00.265Z,24.15
2023-06-17T07:50:31.920Z,25.33
2023-06-17T07:53:03.583Z,26.43
2023-06-17T07:55:35.439Z,24.98
2023-06-17T07:58:07.113Z,26.30
2023-06-17T08:00:38.820Z,27.41
2023-06-17T08:03:10.795Z,27.84
2023-06-17T08:05:42.514Z,25.67
2023-06-17T08:08:14.147Z,26.33
2023-06-17T08:10:46.029Z,25.35
2023-06-17T08:13:17.786Z,24.45
2023-06-17T08:15:51.111Z,24.47
2023-06-17T08:18:22.852Z,25.36
2023-06-17T08:20:54.532Z,24.91
2023-06-17T08:23:26.137Z,27.62
2023-06-17T08:25:58.046Z,25.68
2023-06-17T08:28:29.676Z,23.99
2023-06-17T08:31:01.532Z,25.37
2023-06-17T08:33:33.797Z,25.65
2023-06-17T08:36:05.802Z,26.97
2023-06-17T08:38:37.983Z,27.61
2023-06-17T08:41:09.570Z,25.66
2023-06-17T08:43:42.401Z,22.53
2023-06-17T08:46:15.546Z,22.43
2023-06-17T08:48:49.834Z,20.90
2023-06-17T08:51:21.771Z,22.42
2023-06-17T08:53:53.661Z,23.99
2023-06-17T08:56:25.480Z,22.59
2023-06-17T08:58:57.881Z,22.51
2023-06-17T09:01:30.069Z,22.89
2023-06-17T09:04:02.581Z,23.41
2023-06-17T09:06:34.237Z,24.36
2023-06-17T09:09:06.597Z,24.58
2023-06-17T09:11:38.278Z,23.32
2023-06-17T09:14:10.037Z,23.33
2023-06-17T09:16:41.909Z,22.33
2023-06-17T09:19:14.874Z,24.55
2023-06-17T09:21:49.771Z,22.46
2023-06-17T09:24:31.131Z,26.34
2023-06-17T09:27:02.972Z,24.27
2023-06-17T09:29:37.797Z,21.70
2023-06-17T09:32:09.621Z,22.60
2023-06-17T09:34:49.266Z,24.39
2023-06-17T09:37:21.696Z,24.39
2023-06-17T09:39:53.410Z,23.91
2023-06-17T09:42:31.456Z,24.01
2023-06-17T09:45:08.610Z,24.85
2023-06-17T09:47:40.716Z,27.75
2023-06-17T09:50:13.183Z,25.74
2023-06-17T09:52:45.045Z,24.38
2023-06-17T09:55:16.965Z,25.55
2023-06-17T09:57:54.786Z,24.61
2023-06-17T10:00:28.421Z,23.96
2023-06-17T10:03:00.313Z,25.63
2023-06-17T10:05:32.072Z,24.93
2023-06-17T10:08:05.346Z,22.23
2023-06-17T10:10:37.786Z,25.17
2023-06-17T10:13:10.810Z,23.14
2023-06-17T10:15:42.909Z,25.90
2023-06-17T10:18:16.352Z,24.76
2023-06-17T10:20:51.916Z,24.61
2023-06-17T10:23:24.738Z,28.28
2023-06-17T10:25:56.421Z,28.12
2023-06-17T10:29:11.641Z,26.26
2023-06-17T10:31:44.458Z,27.43
2023-06-17T10:34:21.005Z,25.33
2023-06-17T10:37:01.959Z,27.27
2023-06-17T10:39:33.634Z,26.09
2023-06-17T10:42:14.389Z,24.48
2023-06-17T10:44:47.127Z,24.66
2023-06-17T10:47:23.783Z,23.86
2023-06-17T10:49:55.998Z,22.50
2023-06-17T10:52:30.359Z,23.28
2023-06-17T10:55:04.228Z,22.08
2023-06-17T10:57:37.312Z,21.31
2023-06-17T11:00:13.524Z,21.58
2023-06-17T11:02:45.253Z,21.68
2023-06-17T11:05:17.991Z,24.77
2023-06-17T11:07:50.436Z,23.38
2023-06-17T11:10:26.079Z,20.01
2023-06-17T11:12:58.505Z,20.92
2023-06-17T11:15:30.230Z,19.15
2023-06-17T11:18:05.593Z,18.63
2023-06-17T11:20:37.235Z,18.68
2023-06-17T11:23:08.831Z,16.91
2023-06-17T11:25:45.608Z,18.04
2023-06-17T11:28:17.779Z,20.50
2023-06-17T11:30:51.090Z,17.65
2023-06-17T11:33:24.607Z,16.68
2023-06-17T11:35:56.375Z,15.37
2023-06-17T11:38:28.250Z,15.24
2023-06-17T11:41:00.583Z,15.42
2023-06-17T11:43:32.831Z,15.27
2023-06-17T11:46:04.811Z,16.75
2023-06-17T11:48:36.887Z,16.32
2023-06-17T11:51:08.871Z,17.42
2023-06-17T11:53:40.630Z,15.12
2023-06-17T11:56:15.392Z,17.15
2023-06-17T11:58:47.371Z,16.91
2023-06-17T12:01:26.023Z,17.27
2023-06-17T12:03:58.076Z,17.78
2023-06-17T12:06:30.060Z,18.66
2023-06-17T12:09:05.378Z,17.19
2023-06-17T12:11:40.639Z,17.39
2023-06-17T12:14:13.976Z,15.38
2023-06-17T12:16:47.992Z,15.31
2023-06-17T12:19:25.426Z,16.62
2023-06-17T12:21:56.996Z,15.95
2023-06-17T12:24:28.772Z,15.95
2023-06-17T12:27:00.538Z,14.97
2023-06-17T12:29:32.265Z,17.60
2023-06-17T12:32:04.561Z,16.22
2023-06-17T12:34:36.283Z,16.39
2023-06-17T12:37:08.857Z,17.10
2023-06-17T12:39:41.274Z,19.33
2023-06-17T12:42:13.525Z,19.82
2023-06-17T12:44:45.970Z,18.52
2023-06-17T12:47:19.551Z,16.68
2023-06-17T12:49:51.339Z,17.83
2023-06-17T12:52:23.228Z,15.76
2023-06-17T12:55:02.488Z,17.01
2023-06-17T12:57:34.518Z,18.08
2023-06-17T13:00:07.580Z,17.60
2023-06-17T13:02:39.381Z,18.31
2023-06-17T13:05:11.432Z,18.05
2023-06-17T13:07:43.062Z,18.14
2023-06-17T13:10:14.618Z,18.32
2023-06-17T13:12:46.324Z,17.94
2023-06-17T13:15:18.252Z,17.20
2023-06-17T13:17:50.392Z,18.30
2023-06-17T13:20:22.928Z,17.35
2023-06-17T13:22:55.195Z,17.28
2023-06-17T13:25:27.577Z,16.47
2023-06-17T13:27:59.459Z,15.83
2023-06-17T13:30:31.040Z,14.38
2023-06-17T13:33:02.863Z,17.24
2023-06-17T13:35:34.622Z,16.86
2023-06-17T13:38:06.474Z,17.34
2023-06-17T13:40:38.100Z,18.95
2023-06-17T13:43:09.835Z,17.21
2023-06-17T13:45:41.581Z,17.37
2023-06-17T13:48:13.618Z,17.36
2023-06-17T13:50:45.301Z,17.11
2023-06-17T13:53:17.007Z,17.62
2023-06-17T13:55:49.801Z,17.35
2023-06-17T13:58:21.401Z,16.17
2023-06-17T14:00:53.625Z,17.02
2023-06-17T14:03:25.544Z,17.35
2023-06-17T14:05:57.464Z,16.78
2023-06-17T14:08:29.185Z,16.63
2023-06-17T14:11:00.885Z,15.94
2023-06-17T14:13:32.497Z,14.77
2023-06-17T14:16:04.205Z,14.90
2023-06-17T14:18:35.863Z,15.56
2023-06-17T14:21:08.044Z,15.59
2023-06-17T14:24:15.480Z,16.26
2023-06-17T14:26:47.151Z,15.18
2023-06-17T14:29:18.720Z,15.87
2023-06-17T14:31:50.319Z,15.44
2023-06-17T14:34:21.913Z,15.84
2023-06-17T14:36:53.608Z,15.99
2023-06-17T14:39:25.180Z,16.39
2023-06-17T14:41:56.952Z,16.32
2023-06-17T14:44:28.759Z,15.03
2023-06-17T14:47:00.456Z,16.18
2023-06-17T14:49:32.046Z,15.68
2023-06-17T14:52:03.903Z,14.17
2023-06-17T14:54:35.799Z,15.93
2023-06-17T14:57:07.780Z,15.39
2023-06-17T14:59:39.612Z,16.49
2023-06-17T15:02:25.572Z,15.16
2023-06-17T15:04:57.448Z,16.72
2023-06-17T15:07:29.084Z,16.54
2023-06-17T15:10:01.397Z,16.79
2023-06-17T15:12:33.448Z,15.65
2023-06-17T15:15:06.533Z,16.05
2023-06-17T15:17:38.545Z,15.76
2023-06-17T15:20:11.311Z,18.45
2023-06-17T15:22:42.968Z,16.24
2023-06-17T15:25:14.657Z,15.01
2023-06-17T15:27:46.455Z,14.59
2023-06-17T15:30:18.413Z,17.00
2023-06-17T15:32:52.849Z,19.06
2023-06-17T15:35:24.944Z,19.07
2023-06-17T15:37:56.979Z,20.08
2023-06-17T15:40:28.669Z,21.15
2023-06-17T15:43:00.340Z,19.52
2023-06-17T15:45:32.082Z,19.11
2023-06-17T15:48:04.034Z,18.20
2023-06-17T15:50:36.212Z,18.15
2023-06-17T15:53:07.788Z,18.52
2023-06-17T15:55:39.581Z,18.04
2023-06-17T15:58:11.194Z,18.26
2023-06-17T16:00:42.778Z,19.24
2023-06-17T16:03:26.395Z,20.70
2023-06-17T16:06:00.004Z,20.10
2023-06-17T16:08:31.771Z,20.51
2023-06-17T16:11:04.754Z,20.25
2023-06-17T16:13:38.610Z,18.92
2023-06-17T16:16:10.365Z,19.44
2023-06-17T16:18:42.044Z,19.78
2023-06-17T16:21:13.730Z,19.29
2023-06-17T16:23:45.380Z,20.45
2023-06-17T16:26:16.954Z,22.68
2023-06-17T16:28:48.635Z,23.98
2023-06-17T16:31:20.515Z,23.22
2023-06-17T16:33:52.108Z,24.58
2023-06-17T16:36:23.817Z,24.71
2023-06-17T16:38:55.711Z,23.60
2023-06-17T16:41:27.391Z,22.56
2023-06-17T16:43:59.031Z,22.56
2023-06-17T16:46:30.752Z,21.20
2023-06-17T16:49:02.519Z,20.40
2023-06-17T16:51:34.271Z,20.67
2023-06-17T16:54:06.762Z,19.98
2023-06-17T16:59:12.001Z,21.10
2023-06-17T17:01:43.815Z,19.70
2023-06-17T17:04:15.544Z,20.45
2023-06-17T17:06:47.155Z,22.36
2023-06-17T17:09:18.735Z,22.27
2023-06-17T17:11:50.378Z,23.56
2023-06-17T17:14:23.338Z,23.16
2023-06-17T17:16:55.072Z,24.02
2023-06-17T17:19:27.483Z,22.83
2023-06-17T17:21:59.057Z,23.71
2023-06-17T17:24:30.900Z,24.16
2023-06-17T17:27:02.686Z,24.01
2023-06-17T17:29:35.411Z,24.64
2023-06-17T17:32:07.443Z,25.03
2023-06-17T17:34:39.317Z,24.74
2023-06-17T17:37:10.953Z,24.83
2023-06-17T17:39:42.593Z,24.26
2023-06-17T17:42:14.817Z,23.79
2023-06-17T17:44:46.456Z,23.43
2023-06-17T17:47:18.182Z,22.83
2023-06-17T17:49:49.970Z,22.33
2023-06-17T17:52:21.966Z,23.27
2023-06-17T17:55:01.802Z,25.50
2023-06-17T17:57:34.740Z,26.00
2023-06-17T18:00:09.071Z,25.93
2023-06-17T18:02:40.890Z,27.57
2023-06-17T18:05:12.632Z,32.75
2023-06-17T18:07:44.309Z,34.33
2023-06-17T18:10:15.965Z,40.74
2023-06-17T18:12:47.665Z,41.19
2023-06-17T18:15:19.286Z,40.39
2023-06-17T18:17:50.986Z,41.82
2023-06-17T18:20:22.948Z,37.35
2023-06-17T18:22:54.700Z,37.80
2023-06-17T18:25:26.329Z,37.69
2023-06-17T18:27:57.908Z,36.79
2023-06-17T18:30:29.624Z,36.11
2023-06-17T18:33:01.734Z,34.97
2023-06-17T18:35:34.272Z,34.23
2023-06-17T18:38:07.926Z,34.39
2023-06-17T18:40:41.024Z,34.92
2023-06-17T18:43:13.789Z,34.63
2023-06-17T18:45:45.740Z,33.93
2023-06-17T18:48:17.415Z,32.82
2023-06-17T18:50:52.233Z,32.64
2023-06-17T18:53:23.985Z,32.99
2023-06-17T18:55:56.138Z,32.10
2023-06-17T18:58:27.805Z,33.06
2023-06-17T19:00:59.750Z,32.21
2023-06-17T19:03:31.977Z,32.13
2023-06-17T19:06:04.542Z,32.67
2023-06-17T19:08:36.277Z,33.28
2023-06-17T19:11:08.237Z,32.94
2023-06-17T19:13:39.949Z,32.82
2023-06-17T19:16:11.813Z,31.77
2023-06-17T19:18:43.618Z,32.35
2023-06-17T19:21:15.838Z,31.41
2023-06-17T19:23:47.559Z,31.45
2023-06-17T19:26:19.214Z,31.51
2023-06-17T19:28:51.982Z,31.10
2023-06-17T19:31:25.979Z,32.12
2023-06-17T19:33:57.609Z,32.45
2023-06-17T19:36:30.157Z,32.71
2023-06-17T19:39:02.037Z,35.03
2023-06-17T19:41:33.813Z,34.59
2023-06-17T19:44:07.707Z,36.14
2023-06-17T19:46:40.411Z,37.72
2023-06-17T19:49:12.046Z,39.11
2023-06-17T19:51:43.752Z,39.93
2023-06-17T19:54:16.483Z,40.51
2023-06-17T19:56:48.613Z,41.54
2023-06-17T19:59:21.363Z,42.83
2023-06-17T20:01:53.086Z,42.57
2023-06-17T20:04:24.807Z,44.32
2023-06-17T20:06:56.913Z,44.74
2023-06-17T20:09:31.657Z,45.18
2023-06-17T20:12:03.631Z,45.43
2023-06-17T20:14:35.770Z,45.36
2023-06-17T20:17:08.678Z,45.38
2023-06-17T20:19:40.547Z,45.49
2023-06-17T20:22:12.165Z,45.52
2023-06-17T20:24:43.814Z,45.95
2023-06-17T20:27:15.587Z,45.73
2023-06-17T20:29:47.939Z,46.75
2023-06-17T20:32:20.527Z,46.22
2023-06-17T20:34:52.479Z,45.93
2023-06-17T20:37:24.124Z,46.25
2023-06-17T20:39:56.052Z,46.74
2023-06-17T20:42:27.890Z,47.02
2023-06-17T20:44:59.571Z,47.45
2023-06-17T20:47:31.564Z,48.52
2023-06-17T20:50:03.940Z,49.01
2023-06-17T20:52:35.954Z,48.39
2023-06-17T20:55:08.398Z,48.79
2023-06-17T20:57:41.022Z,48.91
2023-06-17T21:00:13.778Z,48.46
2023-06-17T21:02:45.884Z,48.21
2023-06-17T21:05:17.707Z,48.85
2023-06-17T21:07:49.402Z,48.86
2023-06-17T21:10:21.288Z,48.12
2023-06-17T21:12:53.273Z,47.60
2023-06-17T21:15:24.966Z,47.52
2023-06-17T21:17:56.797Z,48.11
2023-06-17T21:20:28.426Z,48.36
2023-06-17T21:23:00.880Z,48.44
2023-06-17T21:25:32.475Z,49.34
2023-06-17T21:28:04.284Z,48.86
2023-06-17T21:30:35.920Z,48.37
2023-06-17T21:33:07.640Z,48.48
2023-06-17T21:35:39.339Z,48.75
2023-06-17T21:38:11.206Z,48.93
2023-06-17T21:40:42.765Z,48.80
2023-06-17T21:43:14.494Z,47.93
2023-06-17T21:45:46.202Z,48.08
2023-06-17T21:48:18.154Z,47.16
2023-06-17T21:50:49.831Z,47.17
2023-06-17T21:53:21.449Z,46.93
2023-06-17T21:55:53.181Z,47.30
2023-06-17T21:58:24.810Z,47.68
2023-06-17T22:00:56.424Z,47.87
2023-06-17T22:03:28.130Z,47.75
2023-06-17T22:05:59.938Z,48.69
2023-06-17T22:08:42.204Z,48.40
2023-06-17T22:11:15.600Z,47.98
2023-06-17T22:13:47.351Z,49.22
2023-06-17T22:16:19.387Z,48.19
2023-06-17T22:18:51.636Z,48.97
2023-06-17T22:21:23.841Z,49.18
2023-06-17T22:23:56.599Z,48.82
2023-06-17T22:26:28.814Z,48.43
2023-06-17T22:29:00.468Z,48.38
2023-06-17T22:31:32.096Z,48.14
2023-06-17T22:34:03.704Z,47.64
2023-06-17T22:36:35.721Z,47.92
2023-06-17T22:39:07.279Z,47.93
2023-06-17T22:41:39.012Z,47.86
2023-06-17T22:44:10.700Z,47.59
2023-06-17T22:46:42.394Z,48.33
2023-06-17T22:49:14.096Z,48.44
2023-06-17T22:51:45.740Z,48.06
2023-06-17T22:54:17.545Z,47.33
2023-06-17T22:56:49.210Z,47.15
2023-06-17T22:59:21.226Z,46.88
2023-06-17T23:01:52.931Z,46.88
2023-06-17T23:04:24.573Z,46.22
2023-06-17T23:06:56.136Z,46.04
2023-06-17T23:09:27.757Z,45.73
2023-06-17T23:11:59.389Z,45.15
2023-06-17T23:14:31.180Z,44.65
2023-06-17T23:17:02.875Z,44.68
2023-06-17T23:19:34.490Z,44.28
2023-06-17T23:22:06.339Z,43.67
2023-06-17T23:24:39.041Z,43.63
2023-06-17T23:27:10.989Z,43.83
2023-06-17T23:29:42.616Z,42.70
2023-06-17T23:32:14.238Z,42.50
2023-06-17T23:34:45.845Z,42.32
2023-06-17T23:37:19.116Z,42.25
2023-06-17T23:39:50.828Z,41.88
2023-06-17T23:42:22.375Z,41.54
2023-06-17T23:44:54.093Z,41.86
2023-06-17T23:47:26.031Z,41.48
2023-06-17T23:49:57.700Z,40.91
2023-06-17T23:52:29.259Z,41.00
2023-06-17T23:55:02.452Z,41.02
2023-06-17T23:57:34.333Z,41.74
